createdAt,value
2022-11-28T00:01:25.639Z,4.47
2022-11-28T00:03:52.801Z,4.03
2022-11-28T00:06:20.019Z,4.35
2022-11-28T00:08:47.109Z,3.90
2022-11-28T00:11:15.148Z,4.75
2022-11-28T00:13:42.788Z,4.70
2022-11-28T00:16:14.349Z,4.65
2022-11-28T00:18:41.167Z,5.43
2022-11-28T00:21:10.339Z,5.35
2022-11-28T00:23:37.383Z,4.53
2022-11-28T00:26:10.589Z,4.78
2022-11-28T00:28:38.029Z,4.22
2022-11-28T00:31:05.194Z,4.97
2022-11-28T00:33:33.248Z,4.53
2022-11-28T00:36:01.889Z,4.35
2022-11-28T00:38:29.287Z,4.57
2022-11-28T00:41:10.645Z,5.38
2022-11-28T00:43:37.725Z,5.15
2022-11-28T00:46:04.774Z,4.65
2022-11-28T00:48:32.839Z,4.28
2022-11-28T00:51:20.892Z,4.38
2022-11-28T00:53:48.797Z,4.25
2022-11-28T00:56:18.024Z,4.00
2022-11-28T00:58:45.126Z,4.10
2022-11-28T01:01:18.320Z,4.10
2022-11-28T01:03:46.544Z,4.18
2022-11-28T01:06:13.893Z,4.18
2022-11-28T01:08:40.671Z,4.40
2022-11-28T01:11:13.009Z,3.67
2022-11-28T01:13:40.730Z,3.80
2022-11-28T01:16:08.918Z,4.13
2022-11-28T01:18:36.407Z,3.83
2022-11-28T01:21:03.648Z,3.63
2022-11-28T01:23:30.442Z,4.85
2022-11-28T01:25:57.243Z,3.47
2022-11-28T01:28:23.961Z,4.43
2022-11-28T01:30:50.687Z,5.05
2022-11-28T01:33:17.484Z,3.75
2022-11-28T01:35:54.550Z,4.65
2022-11-28T01:38:21.330Z,4.40
2022-11-28T01:40:48.205Z,3.50
2022-11-28T01:43:15.063Z,3.92
2022-11-28T01:45:42.183Z,3.80
2022-11-28T01:48:12.043Z,3.58
2022-11-28T01:50:39.056Z,3.47
2022-11-28T01:53:08.894Z,2.70
2022-11-28T01:55:43.225Z,2.78
2022-11-28T01:58:11.792Z,2.72
2022-11-28T02:00:38.681Z,2.58
2022-11-28T02:03:10.594Z,2.10
2022-11-28T02:05:37.603Z,2.53
2022-11-28T02:08:04.865Z,2.10
2022-11-28T02:11:05.565Z,1.92
2022-11-28T02:13:53.628Z,1.52
2022-11-28T02:16:41.553Z,1.83
2022-11-28T02:19:17.370Z,1.67
2022-11-28T02:22:05.738Z,1.92
2022-11-28T02:25:10.459Z,1.70
2022-11-28T02:27:46.193Z,1.63
2022-11-28T02:30:20.211Z,1.70
2022-11-28T02:33:00.111Z,2.22
2022-11-28T02:35:35.692Z,1.65
2022-11-28T02:38:12.936Z,1.30
2022-11-28T02:40:48.557Z,1.67
2022-11-28T02:46:04.678Z,1.30
2022-11-28T02:48:57.765Z,1.52
2022-11-28T02:51:33.600Z,1.55
2022-11-28T02:54:02.944Z,1.45
2022-11-28T02:56:29.763Z,1.85
2022-11-28T02:58:56.591Z,1.33
2022-11-28T03:01:28.082Z,1.77
2022-11-28T03:04:10.119Z,1.30
2022-11-28T03:06:43.010Z,1.67
2022-11-28T03:09:36.094Z,1.77
2022-11-28T03:12:33.696Z,2.08
2022-11-28T03:15:06.360Z,1.42
2022-11-28T03:17:45.189Z,2.13
2022-11-28T03:20:21.718Z,2.17
2022-11-28T03:22:59.888Z,1.85
2022-11-28T03:25:45.304Z,2.00
2022-11-28T03:28:18.952Z,2.22
2022-11-28T03:30:53.058Z,1.80
2022-11-28T03:33:21.384Z,2.13
2022-11-28T03:35:58.716Z,1.92
2022-11-28T03:38:30.313Z,1.35
2022-11-28T03:40:59.481Z,1.55
2022-11-28T03:43:31.314Z,2.03
2022-11-28T03:46:02.267Z,1.40
2022-11-28T03:48:34.946Z,3.05
2022-11-28T03:51:20.956Z,2.22
2022-11-28T03:54:01.693Z,1.60
2022-11-28T03:56:54.973Z,1.40
2022-11-28T03:59:27.699Z,1.15
2022-11-28T04:02:06.277Z,1.58
2022-11-28T04:04:45.978Z,1.23
2022-11-28T04:07:31.597Z,1.48
2022-11-28T04:10:36.117Z,1.33
2022-11-28T04:13:20.130Z,1.58
2022-11-28T04:15:57.481Z,1.98
2022-11-28T04:18:27.241Z,1.92
2022-11-28T04:20:54.009Z,1.67
2022-11-28T04:23:21.776Z,1.80
2022-11-28T04:25:53.333Z,1.40
2022-11-28T04:28:23.891Z,2.08
2022-11-28T04:30:51.607Z,2.42
2022-11-28T04:33:20.696Z,1.95
2022-11-28T04:38:19.458Z,2.20
2022-11-28T04:40:55.409Z,1.50
2022-11-28T04:43:28.575Z,2.25
2022-11-28T04:46:00.775Z,1.60
2022-11-28T04:48:32.776Z,2.08
2022-11-28T04:51:27.848Z,2.22
2022-11-28T04:54:02.553Z,1.88
2022-11-28T04:56:34.596Z,1.48
2022-11-28T04:59:02.283Z,2.42
2022-11-28T05:01:30.315Z,1.88
2022-11-28T05:03:57.308Z,1.95
2022-11-28T05:06:26.768Z,2.97
2022-11-28T05:08:53.548Z,2.55
2022-11-28T05:11:20.457Z,1.80
2022-11-28T05:13:47.326Z,1.48
2022-11-28T05:16:15.106Z,1.92
2022-11-28T05:18:42.118Z,2.25
2022-11-28T05:21:09.388Z,2.35
2022-11-28T05:23:40.841Z,1.65
2022-11-28T05:26:08.899Z,2.47
2022-11-28T05:28:35.709Z,2.28
2022-11-28T05:31:03.309Z,2.20
2022-11-28T05:33:30.809Z,2.30
2022-11-28T05:36:02.596Z,3.22
2022-11-28T05:38:29.365Z,2.30
2022-11-28T05:40:56.114Z,3.15
2022-11-28T05:43:22.821Z,2.50
2022-11-28T05:45:49.708Z,3.15
2022-11-28T05:48:16.514Z,2.80
2022-11-28T05:50:43.300Z,3.03
2022-11-28T05:53:10.499Z,4.68
2022-11-28T05:55:39.035Z,4.75
2022-11-28T05:58:06.251Z,3.55
2022-11-28T06:00:32.976Z,4.10
2022-11-28T06:03:01.549Z,4.70
2022-11-28T06:05:42.270Z,4.18
2022-11-28T06:08:12.139Z,4.30
2022-11-28T06:10:39.102Z,4.70
2022-11-28T06:13:05.908Z,4.53
2022-11-28T06:15:37.457Z,4.45
2022-11-28T06:18:05.335Z,4.82
2022-11-28T06:20:32.087Z,4.47
2022-11-28T06:22:59.135Z,4.03
2022-11-28T06:25:25.884Z,4.50
2022-11-28T06:27:52.629Z,4.70
2022-11-28T06:30:19.385Z,4.97
2022-11-28T06:32:46.159Z,4.80
2022-11-28T06:35:12.914Z,4.55
2022-11-28T06:37:39.740Z,3.50
2022-11-28T06:40:07.098Z,3.70
2022-11-28T06:42:36.434Z,3.97
2022-11-28T06:45:06.864Z,4.05
2022-11-28T06:47:33.597Z,4.95
2022-11-28T06:50:00.317Z,4.85
2022-11-28T06:52:27.253Z,4.25
2022-11-28T06:54:54.104Z,3.85
2022-11-28T06:57:22.188Z,4.70
2022-11-28T06:59:50.655Z,3.65
2022-11-28T07:02:17.665Z,4.03
2022-11-28T07:04:44.504Z,4.28
2022-11-28T07:07:16.175Z,4.93
2022-11-28T07:09:43.839Z,5.40
2022-11-28T07:12:10.858Z,5.45
2022-11-28T07:14:38.358Z,5.53
2022-11-28T07:17:05.288Z,5.75
2022-11-28T07:19:32.134Z,4.60
2022-11-28T07:21:58.876Z,5.30
2022-11-28T07:24:25.863Z,5.28
2022-11-28T07:26:52.555Z,5.07
2022-11-28T07:29:19.670Z,3.72
2022-11-28T07:31:46.524Z,5.18
2022-11-28T07:34:13.399Z,4.05
2022-11-28T07:36:40.276Z,4.03
2022-11-28T07:39:14.722Z,4.20
2022-11-28T07:41:41.480Z,4.38
2022-11-28T07:44:08.174Z,3.50
2022-11-28T07:46:35.082Z,3.20
2022-11-28T07:49:02.470Z,3.60
2022-11-28T07:51:32.691Z,3.60
2022-11-28T07:54:00.512Z,3.28
2022-11-28T07:56:44.327Z,3.15
2022-11-28T07:59:16.430Z,3.45
2022-11-28T08:01:43.311Z,3.35
2022-11-28T08:04:10.570Z,3.17
2022-11-28T08:06:40.414Z,3.08
2022-11-28T08:09:07.638Z,4.97
2022-11-28T08:11:35.444Z,3.83
2022-11-28T08:14:02.469Z,4.30
2022-11-28T08:16:29.577Z,4.07
2022-11-28T08:18:56.823Z,3.75
2022-11-28T08:21:26.712Z,4.15
2022-11-28T08:23:55.334Z,3.50
2022-11-28T08:26:27.511Z,3.97
2022-11-28T08:28:57.881Z,3.40
2022-11-28T08:31:27.444Z,4.20
2022-11-28T08:33:55.706Z,4.22
2022-11-28T08:36:23.027Z,4.43
2022-11-28T08:39:03.266Z,3.80
2022-11-28T08:41:36.586Z,4.47
2022-11-28T08:44:03.491Z,3.42
2022-11-28T08:46:30.611Z,4.55
2022-11-28T08:48:57.465Z,3.78
2022-11-28T08:51:24.633Z,3.13
2022-11-28T08:53:57.880Z,3.67
2022-11-28T08:56:26.327Z,4.30
2022-11-28T08:58:53.093Z,4.53
2022-11-28T09:01:23.000Z,4.97
2022-11-28T09:03:50.820Z,4.28
2022-11-28T09:06:18.467Z,3.80
2022-11-28T09:08:45.556Z,3.20
2022-11-28T09:11:14.747Z,3.15
2022-11-28T09:13:41.609Z,3.47
2022-11-28T09:16:08.856Z,3.28
2022-11-28T09:18:36.002Z,3.05
2022-11-28T09:21:05.206Z,2.65
2022-11-28T09:23:32.040Z,2.63
2022-11-28T09:25:58.795Z,2.25
2022-11-28T09:28:28.708Z,2.38
2022-11-28T09:31:01.511Z,2.33
2022-11-28T09:33:28.347Z,2.53
2022-11-28T09:35:55.653Z,2.88
2022-11-28T09:38:23.249Z,2.70
2022-11-28T09:40:50.593Z,3.60
2022-11-28T09:43:20.750Z,2.95
2022-11-28T09:45:50.360Z,3.10
2022-11-28T09:48:31.922Z,2.95
2022-11-28T09:51:03.844Z,3.38
2022-11-28T09:53:48.162Z,2.58
2022-11-28T09:56:17.294Z,2.45
2022-11-28T09:58:54.253Z,3.72
2022-11-28T10:01:42.725Z,2.45
2022-11-28T10:04:47.285Z,2.70
2022-11-28T10:07:38.905Z,2.05
2022-11-28T10:10:11.630Z,1.80
2022-11-28T10:12:58.597Z,1.95
2022-11-28T10:15:28.314Z,1.95
2022-11-28T10:18:35.813Z,2.35
2022-11-28T10:21:28.677Z,1.13
2022-11-28T10:23:59.155Z,1.15
2022-11-28T10:26:28.817Z,1.75
2022-11-28T10:28:57.371Z,1.15
2022-11-28T10:33:55.366Z,1.58
2022-11-28T10:36:28.973Z,2.28
2022-11-28T10:38:57.132Z,2.35
2022-11-28T10:41:29.680Z,2.22
2022-11-28T10:44:08.043Z,2.03
2022-11-28T10:47:03.467Z,1.50
2022-11-28T10:49:33.414Z,1.88
2022-11-28T10:52:19.919Z,2.20
2022-11-28T10:55:01.582Z,1.75
2022-11-28T10:57:55.070Z,2.25
2022-11-28T11:00:21.917Z,4.00
2022-11-28T11:02:54.933Z,1.77
2022-11-28T11:05:30.205Z,1.50
2022-11-28T11:08:28.299Z,1.77
2022-11-28T11:11:02.170Z,1.30
2022-11-28T11:13:31.667Z,2.47
2022-11-28T11:15:58.928Z,2.00
2022-11-28T11:18:34.700Z,2.05
2022-11-28T11:21:13.571Z,2.97
2022-11-28T11:23:40.596Z,2.53
2022-11-28T11:26:10.546Z,2.70
2022-11-28T11:28:46.388Z,2.00
2022-11-28T11:31:18.086Z,1.98
2022-11-28T11:33:45.496Z,2.25
2022-11-28T11:36:32.415Z,2.65
2022-11-28T11:39:28.427Z,2.28
2022-11-28T11:42:27.671Z,2.45
2022-11-28T11:44:54.718Z,2.15
2022-11-28T11:47:41.376Z,2.10
2022-11-28T11:50:20.389Z,2.42
2022-11-28T11:53:15.145Z,2.05
2022-11-28T11:55:50.239Z,2.35
2022-11-28T11:58:32.031Z,1.92
2022-11-28T12:00:59.932Z,2.38
2022-11-28T12:03:54.041Z,2.30
2022-11-28T12:06:24.426Z,2.03
2022-11-28T12:08:58.022Z,2.00
2022-11-28T12:11:52.970Z,2.70
2022-11-28T12:14:31.876Z,2.33
2022-11-28T12:17:25.706Z,2.83
2022-11-28T12:20:03.949Z,2.40
2022-11-28T12:22:50.577Z,2.00
2022-11-28T12:25:31.562Z,2.47
2022-11-28T12:28:30.511Z,2.60
2022-11-28T12:31:12.336Z,2.75
2022-11-28T12:33:44.902Z,2.28
2022-11-28T12:36:35.178Z,2.47
2022-11-28T12:39:37.556Z,2.38
2022-11-28T12:42:33.768Z,2.70
2022-11-28T12:45:22.370Z,2.40
2022-11-28T12:48:27.443Z,2.85
2022-11-28T12:51:26.264Z,1.77
2022-11-28T12:54:01.983Z,2.00
2022-11-28T12:56:57.038Z,2.13
2022-11-28T12:59:31.838Z,2.97
2022-11-28T13:02:09.699Z,2.72
2022-11-28T13:04:51.888Z,2.42
2022-11-28T13:07:40.232Z,2.03
2022-11-28T13:10:15.815Z,2.80
2022-11-28T13:13:00.869Z,3.35
2022-11-28T13:15:50.547Z,2.72
2022-11-28T13:18:29.891Z,3.67
2022-11-28T13:21:21.531Z,3.70
2022-11-28T13:24:11.632Z,3.92
2022-11-28T13:26:44.610Z,6.53
2022-11-28T13:29:23.071Z,4.03
2022-11-28T13:32:15.044Z,3.08
2022-11-28T13:34:42.075Z,3.08
2022-11-28T13:40:05.306Z,2.05
2022-11-28T13:45:34.199Z,1.77
2022-11-28T13:49:06.067Z,2.15
2022-11-28T13:51:31.039Z,2.67
2022-11-28T13:54:17.678Z,2.85
2022-11-28T13:57:23.496Z,2.28
2022-11-28T14:00:00.113Z,3.00
2022-11-28T14:02:36.022Z,2.20
2022-11-28T14:05:04.030Z,2.75
2022-11-28T14:07:32.692Z,2.92
2022-11-28T14:12:34.238Z,3.95
2022-11-28T14:15:29.037Z,3.03
2022-11-28T14:18:54.269Z,4.00
2022-11-28T14:21:24.812Z,4.68
2022-11-28T14:24:34.449Z,7.45
2022-11-28T14:27:02.993Z,5.60
2022-11-28T14:29:35.802Z,4.85
2022-11-28T14:34:50.212Z,4.55
2022-11-28T14:37:20.406Z,4.57
2022-11-28T14:39:49.464Z,4.18
2022-11-28T14:42:36.897Z,3.67
2022-11-28T14:45:40.991Z,3.67
2022-11-28T14:48:23.110Z,4.10
2022-11-28T14:50:57.586Z,4.45
2022-11-28T14:53:34.182Z,5.18
2022-11-28T14:56:13.822Z,5.22
2022-11-28T14:58:46.639Z,7.13
2022-11-28T15:01:18.847Z,7.78
2022-11-28T15:03:50.058Z,7.07
2022-11-28T15:06:21.063Z,6.55
2022-11-28T15:09:05.393Z,6.15
2022-11-28T15:11:41.547Z,7.15
2022-11-28T15:14:28.572Z,7.43
2022-11-28T15:16:58.184Z,9.75
2022-11-28T15:19:51.638Z,10.05
2022-11-28T15:22:31.963Z,7.13
2022-11-28T15:24:59.043Z,8.05
2022-11-28T15:27:27.496Z,7.13
2022-11-28T15:29:57.103Z,5.00
2022-11-28T15:32:25.253Z,5.68
2022-11-28T15:35:00.107Z,3.95
2022-11-28T15:37:30.563Z,5.57
2022-11-28T15:39:57.688Z,6.43
2022-11-28T15:42:28.856Z,6.15
2022-11-28T15:45:04.804Z,5.28
2022-11-28T15:47:32.100Z,5.25
2022-11-28T15:50:19.525Z,6.68
2022-11-28T15:53:16.409Z,9.63
2022-11-28T15:55:43.880Z,11.90
2022-11-28T15:58:30.816Z,9.50
2022-11-28T16:01:12.217Z,7.25
2022-11-28T16:03:57.482Z,8.13
2022-11-28T16:06:27.104Z,8.10
2022-11-28T16:09:00.526Z,8.57
2022-11-28T16:11:30.598Z,8.13
2022-11-28T16:13:58.860Z,7.38
2022-11-28T16:16:30.968Z,8.32
2022-11-28T16:18:59.755Z,7.60
2022-11-28T16:21:31.690Z,7.35
2022-11-28T16:24:00.725Z,7.45
2022-11-28T16:26:27.398Z,8.50
2022-11-28T16:29:09.511Z,6.90
2022-11-28T16:31:36.283Z,7.00
2022-11-28T16:34:03.576Z,8.40
2022-11-28T16:36:31.185Z,8.50
2022-11-28T16:39:16.171Z,8.32
2022-11-28T16:41:52.169Z,6.53
2022-11-28T16:44:22.247Z,6.85
2022-11-28T16:46:53.324Z,8.13
2022-11-28T16:49:34.842Z,9.50
2022-11-28T16:52:21.824Z,7.55
2022-11-28T16:54:49.631Z,5.18
2022-11-28T16:57:16.539Z,6.18
2022-11-28T16:59:44.518Z,4.90
2022-11-28T17:02:20.441Z,3.92
2022-11-28T17:04:48.940Z,4.40
2022-11-28T17:07:18.960Z,4.10
2022-11-28T17:09:47.253Z,4.97
2022-11-28T17:12:43.462Z,5.80
2022-11-28T17:15:19.469Z,5.05
2022-11-28T17:17:46.344Z,4.38
2022-11-28T17:20:13.841Z,6.60
2022-11-28T17:22:43.504Z,4.97
2022-11-28T17:28:00.320Z,4.15
2022-11-28T17:30:27.032Z,4.13
2022-11-28T17:32:53.807Z,4.00
2022-11-28T17:35:23.564Z,4.00
2022-11-28T17:37:50.429Z,4.93
2022-11-28T17:40:36.751Z,5.15
2022-11-28T17:43:04.097Z,5.63
2022-11-28T17:45:34.006Z,5.90
2022-11-28T17:48:01.010Z,4.82
2022-11-28T17:50:27.888Z,6.05
2022-11-28T17:52:54.728Z,6.60
2022-11-28T17:55:22.009Z,7.07
2022-11-28T17:57:48.803Z,7.45
2022-11-28T18:00:16.840Z,7.15
2022-11-28T18:02:44.816Z,7.53
2022-11-28T18:05:11.872Z,10.38
2022-11-28T18:07:40.213Z,12.15
2022-11-28T18:10:11.095Z,12.43
2022-11-28T18:12:39.131Z,9.35
2022-11-28T18:15:07.623Z,13.60
2022-11-28T18:17:34.403Z,13.65
2022-11-28T18:20:02.156Z,8.20
2022-11-28T18:22:29.009Z,7.13
2022-11-28T18:24:55.804Z,7.60
2022-11-28T18:27:22.568Z,7.15
2022-11-28T18:29:49.296Z,6.45
2022-11-28T18:32:16.018Z,6.50
2022-11-28T18:34:42.902Z,5.72
2022-11-28T18:37:10.780Z,5.45
2022-11-28T18:39:37.655Z,5.28
2022-11-28T18:42:05.030Z,5.22
2022-11-28T18:44:31.941Z,4.50
2022-11-28T18:46:58.732Z,5.07
2022-11-28T18:49:25.517Z,5.07
2022-11-28T18:51:52.329Z,4.97
2022-11-28T18:54:21.574Z,5.63
2022-11-28T18:56:49.114Z,6.20
2022-11-28T18:59:17.430Z,5.78
2022-11-28T19:01:44.350Z,6.65
2022-11-28T19:04:12.519Z,5.97
2022-11-28T19:06:40.558Z,7.78
2022-11-28T19:09:12.139Z,7.07
2022-11-28T19:11:40.503Z,8.10
2022-11-28T19:14:08.094Z,7.82
2022-11-28T19:16:37.811Z,8.00
2022-11-28T19:19:06.277Z,8.13
2022-11-28T19:21:35.707Z,9.52
2022-11-28T19:24:03.416Z,8.45
2022-11-28T19:26:31.517Z,8.50
2022-11-28T19:29:00.466Z,9.25
2022-11-28T19:31:29.901Z,8.75
2022-11-28T19:34:01.172Z,9.30
2022-11-28T19:36:35.972Z,8.88
2022-11-28T19:39:04.508Z,7.65
2022-11-28T19:41:32.391Z,8.23
2022-11-28T19:43:59.912Z,6.97
2022-11-28T19:46:35.144Z,7.68
2022-11-28T19:49:04.882Z,7.85
2022-11-28T19:51:32.294Z,7.15
2022-11-28T19:54:03.212Z,6.80
2022-11-28T19:56:32.547Z,5.82
2022-11-28T19:58:59.553Z,5.20
2022-11-28T20:01:28.258Z,5.55
2022-11-28T20:03:55.389Z,6.15
2022-11-28T20:06:32.353Z,7.22
2022-11-28T20:09:08.893Z,6.55
2022-11-28T20:11:40.684Z,5.70
2022-11-28T20:14:12.720Z,6.22
2022-11-28T20:16:40.677Z,5.50
2022-11-28T20:19:10.887Z,5.07
2022-11-28T20:21:38.286Z,4.40
2022-11-28T20:24:07.547Z,4.65
2022-11-28T20:26:38.632Z,4.13
2022-11-28T20:29:06.431Z,4.22
2022-11-28T20:33:40.587Z,4.85
2022-11-28T20:36:09.670Z,4.63
2022-11-28T20:38:37.270Z,4.20
2022-11-28T20:41:05.907Z,4.38
2022-11-28T20:43:34.161Z,4.78
2022-11-28T20:46:05.936Z,5.65
2022-11-28T20:48:32.706Z,6.07
2022-11-28T20:50:59.538Z,5.88
2022-11-28T20:53:27.016Z,5.88
2022-11-28T20:56:01.847Z,6.25
2022-11-28T20:58:29.429Z,6.03
2022-11-28T21:00:56.651Z,7.03
2022-11-28T21:03:24.054Z,6.32
2022-11-28T21:05:52.603Z,5.55
2022-11-28T21:08:22.212Z,4.70
2022-11-28T21:10:48.921Z,6.10
2022-11-28T21:13:15.723Z,5.47
2022-11-28T21:15:45.681Z,5.28
2022-11-28T21:18:16.440Z,4.85
2022-11-28T21:20:45.622Z,5.72
2022-11-28T21:23:13.644Z,5.90
2022-11-28T21:25:41.847Z,5.63
2022-11-28T21:28:09.720Z,6.45
2022-11-28T21:30:45.309Z,5.93
2022-11-28T21:33:12.936Z,5.07
2022-11-28T21:35:40.331Z,4.70
2022-11-28T21:38:07.513Z,4.03
2022-11-28T21:40:34.433Z,4.47
2022-11-28T21:43:01.229Z,4.45
2022-11-28T21:45:28.146Z,4.80
2022-11-28T21:47:55.008Z,5.05
2022-11-28T21:50:22.430Z,5.40
2022-11-28T21:52:49.178Z,5.53
2022-11-28T21:55:16.121Z,6.47
2022-11-28T21:57:42.970Z,6.47
2022-11-28T22:00:25.657Z,6.13
2022-11-28T22:05:32.229Z,4.30
2022-11-28T22:07:59.361Z,4.28
2022-11-28T22:10:26.542Z,3.65
2022-11-28T22:12:53.750Z,4.53
2022-11-28T22:15:20.818Z,4.95
2022-11-28T22:17:47.673Z,4.78
2022-11-28T22:20:14.474Z,4.32
2022-11-28T22:22:41.347Z,4.95
2022-11-28T22:25:08.286Z,5.72
2022-11-28T22:27:35.667Z,4.53
2022-11-28T22:30:02.942Z,6.20
2022-11-28T22:32:29.929Z,5.55
2022-11-28T22:34:56.917Z,4.65
2022-11-28T22:37:23.685Z,4.97
2022-11-28T22:39:50.417Z,4.72
2022-11-28T22:42:17.241Z,5.82
2022-11-28T22:44:44.294Z,4.88
2022-11-28T22:47:11.357Z,5.55
2022-11-28T22:49:38.141Z,5.57
2022-11-28T22:52:05.096Z,5.25
2022-11-28T22:54:32.089Z,5.72
2022-11-28T22:56:59.194Z,5.20
2022-11-28T22:59:26.150Z,5.30
2022-11-28T23:01:52.990Z,5.43
2022-11-28T23:04:19.873Z,4.30
2022-11-28T23:06:46.751Z,3.70
2022-11-28T23:09:14.530Z,3.75
2022-11-28T23:11:41.560Z,3.38
2022-11-28T23:14:12.015Z,2.72
2022-11-28T23:16:40.931Z,2.55
2022-11-28T23:19:17.097Z,2.28
2022-11-28T23:21:46.292Z,3.00
2022-11-28T23:24:15.146Z,2.03
2022-11-28T23:26:43.629Z,2.25
2022-11-28T23:29:10.475Z,2.00
2022-11-28T23:31:39.169Z,1.67
2022-11-28T23:34:07.858Z,1.60
2022-11-28T23:36:42.017Z,2.47
2022-11-28T23:39:17.735Z,2.08
2022-11-28T23:41:44.791Z,1.95
2022-11-28T23:44:12.609Z,2.22
2022-11-28T23:46:39.987Z,2.10
2022-11-28T23:49:07.040Z,2.38
2022-11-28T23:51:34.352Z,2.50
2022-11-28T23:54:01.365Z,2.85
2022-11-28T23:56:30.486Z,2.97
2022-11-28T23:58:57.819Z,3.10
